MBB weather

Marble Bar Airport
Western Australia, Australia

Public forecast

Using degrees Celsius for public forecast. Weather courtesy of forecast.io.

METAR (pilot weather report)

Closest report is Port Hedland International Airport, 82.6 nm (152.9 km) NW. Retrieved 2019/03/26 01:30 UTC (8 minutes ago):

YPPD 260130Z AUTO 07009KT 9999 // SCT023 28/26 Q1011 RF00.0/000.0

TAF (pilot weather forecast)

Forecast is more than 12 hours old.

Closest forecast is Port Hedland International Airport, 82.6 nm (152.9 km) NW. Retrieved 2019/03/25 12:36 UTC (13 hours ago):

TAF YPPD 251105Z 2512/2612 03014KT 9999 -RA BKN020 FM260600 35014KT 9999 -RA BKN020 TEMPO 2512/2606 VRB25G40KT 2000 TSRA BKN008 SCT020CB INTER 2606/2612 VRB25G40KT 2000 TSRA BKN010 FEW020CB